createdAt,value
2023-01-29T00:01:25.306Z,4.82
2023-01-29T00:03:52.483Z,5.05
2023-01-29T00:06:19.498Z,4.90
2023-01-29T00:08:46.897Z,4.78
2023-01-29T00:11:14.224Z,6.30
2023-01-29T00:13:41.507Z,6.28
2023-01-29T00:16:09.272Z,6.10
2023-01-29T00:18:42.889Z,4.95
2023-01-29T00:21:14.587Z,5.47
2023-01-29T00:23:42.232Z,5.30
2023-01-29T00:26:09.799Z,4.95
2023-01-29T00:28:37.319Z,5.40
2023-01-29T00:31:14.873Z,5.55
2023-01-29T00:33:42.124Z,5.05
2023-01-29T00:36:10.598Z,5.90
2023-01-29T00:38:37.646Z,5.10
2023-01-29T00:41:33.619Z,5.72
2023-01-29T00:44:19.627Z,4.70
2023-01-29T00:46:47.083Z,5.10
2023-01-29T00:49:14.219Z,5.72
2023-01-29T00:51:41.290Z,5.22
2023-01-29T00:54:08.066Z,4.45
2023-01-29T00:56:36.026Z,4.78
2023-01-29T00:59:03.745Z,5.00
2023-01-29T01:01:48.859Z,5.10
2023-01-29T01:04:15.605Z,4.25
2023-01-29T01:06:42.801Z,5.05
2023-01-29T01:09:30.895Z,4.60
2023-01-29T01:11:57.956Z,5.63
2023-01-29T01:14:25.185Z,5.38
2023-01-29T01:16:52.184Z,4.63
2023-01-29T01:19:19.131Z,4.45
2023-01-29T01:21:48.406Z,4.45
2023-01-29T01:24:15.615Z,5.03
2023-01-29T01:26:42.851Z,4.97
2023-01-29T01:29:09.568Z,4.43
2023-01-29T01:31:36.996Z,5.13
2023-01-29T01:34:03.896Z,4.75
2023-01-29T01:36:32.603Z,5.70
2023-01-29T01:38:59.541Z,4.88
2023-01-29T01:41:26.331Z,5.13
2023-01-29T01:43:56.305Z,5.15
2023-01-29T01:46:23.439Z,5.30
2023-01-29T01:48:54.680Z,4.80
2023-01-29T01:51:22.000Z,4.80
2023-01-29T01:54:03.258Z,4.93
2023-01-29T01:56:40.791Z,5.47
2023-01-29T01:59:10.102Z,4.82
2023-01-29T02:01:38.438Z,4.85
2023-01-29T02:04:25.925Z,4.45
2023-01-29T02:07:11.476Z,5.00
2023-01-29T02:09:55.673Z,5.00
2023-01-29T02:12:22.183Z,4.47
2023-01-29T02:14:48.636Z,4.70
2023-01-29T02:17:16.683Z,5.25
2023-01-29T02:20:11.017Z,4.93
2023-01-29T02:23:15.779Z,4.35
2023-01-29T02:26:21.493Z,5.13
2023-01-29T02:29:22.414Z,4.63
2023-01-29T02:32:04.269Z,4.60
2023-01-29T02:35:10.869Z,4.80
2023-01-29T02:37:40.107Z,4.70
2023-01-29T02:40:14.902Z,4.63
2023-01-29T02:42:50.700Z,4.68
2023-01-29T02:45:29.577Z,4.43
2023-01-29T02:47:58.714Z,4.53
2023-01-29T02:50:33.110Z,4.65
2023-01-29T02:53:24.069Z,4.78
2023-01-29T02:55:55.081Z,5.03
2023-01-29T02:58:31.173Z,5.07
2023-01-29T03:01:00.892Z,5.18
2023-01-29T03:03:31.194Z,5.70
2023-01-29T03:06:02.547Z,4.68
2023-01-29T03:08:42.916Z,5.20
2023-01-29T03:11:15.760Z,4.57
2023-01-29T03:16:12.618Z,4.22
2023-01-29T03:18:46.208Z,4.55
2023-01-29T03:21:44.169Z,4.65
2023-01-29T03:24:29.769Z,4.53
2023-01-29T03:27:15.322Z,5.40
2023-01-29T03:30:00.054Z,4.93
2023-01-29T03:32:28.753Z,4.78
2023-01-29T03:34:58.229Z,4.97
2023-01-29T03:37:43.859Z,5.28
2023-01-29T03:40:10.818Z,6.03
2023-01-29T03:42:55.970Z,5.82
2023-01-29T03:45:25.392Z,5.82
2023-01-29T03:48:13.852Z,5.38
2023-01-29T03:51:04.572Z,4.53
2023-01-29T03:53:33.738Z,7.40
2023-01-29T03:56:09.153Z,5.20
2023-01-29T03:58:50.804Z,4.88
2023-01-29T04:01:30.796Z,5.05
2023-01-29T04:04:18.431Z,5.03
2023-01-29T04:06:45.679Z,4.80
2023-01-29T04:09:22.212Z,4.18
2023-01-29T04:11:50.529Z,5.05
2023-01-29T04:14:17.042Z,5.25
2023-01-29T04:16:46.587Z,4.65
2023-01-29T04:19:13.093Z,3.42
2023-01-29T04:21:39.643Z,4.00
2023-01-29T04:24:07.148Z,7.28
2023-01-29T04:26:41.646Z,6.55
2023-01-29T04:29:33.058Z,5.13
2023-01-29T04:32:05.864Z,4.75
2023-01-29T04:37:17.122Z,2.88
2023-01-29T04:39:56.020Z,3.30
2023-01-29T04:42:37.096Z,2.20
2023-01-29T04:45:41.348Z,3.20
2023-01-29T04:48:26.985Z,2.20
2023-01-29T04:51:00.998Z,2.10
2023-01-29T04:53:52.559Z,2.20
2023-01-29T04:56:45.180Z,1.70
2023-01-29T04:59:14.515Z,2.15
2023-01-29T05:01:41.215Z,2.30
2023-01-29T05:04:13.375Z,2.20
2023-01-29T05:06:39.932Z,1.45
2023-01-29T05:09:06.414Z,1.50
2023-01-29T05:11:33.397Z,1.70
2023-01-29T05:14:01.423Z,2.00
2023-01-29T05:16:41.911Z,1.42
2023-01-29T05:19:12.596Z,1.50
2023-01-29T05:21:41.070Z,1.60
2023-01-29T05:24:13.137Z,1.70
2023-01-29T05:26:58.799Z,2.28
2023-01-29T05:29:25.447Z,4.03
2023-01-29T05:31:51.956Z,2.05
2023-01-29T05:34:20.479Z,2.90
2023-01-29T05:36:47.325Z,3.10
2023-01-29T05:39:13.868Z,1.50
2023-01-29T05:41:40.445Z,1.70
2023-01-29T05:44:06.976Z,1.95
2023-01-29T05:46:33.476Z,1.80
2023-01-29T05:48:59.952Z,1.95
2023-01-29T05:51:26.480Z,7.85
2023-01-29T05:53:52.955Z,2.58
2023-01-29T05:56:19.407Z,3.00
2023-01-29T05:58:45.916Z,2.13
2023-01-29T06:01:14.090Z,2.30
2023-01-29T06:03:40.964Z,2.42
2023-01-29T06:06:07.633Z,2.40
2023-01-29T06:08:34.164Z,2.13
2023-01-29T06:11:00.793Z,2.35
2023-01-29T06:13:27.317Z,2.55
2023-01-29T06:15:53.841Z,3.05
2023-01-29T06:18:20.366Z,2.47
2023-01-29T06:20:46.889Z,2.22
2023-01-29T06:23:13.401Z,2.20
2023-01-29T06:25:39.871Z,2.17
2023-01-29T06:28:06.828Z,2.40
2023-01-29T06:30:33.366Z,2.47
2023-01-29T06:33:01.557Z,2.30
2023-01-29T06:35:28.323Z,2.13
2023-01-29T06:37:54.809Z,2.47
2023-01-29T06:40:21.284Z,2.60
2023-01-29T06:42:47.798Z,2.65
2023-01-29T06:45:14.353Z,2.67
2023-01-29T06:47:40.812Z,2.88
2023-01-29T06:50:07.433Z,3.05
2023-01-29T06:52:33.919Z,3.22
2023-01-29T06:55:00.405Z,2.83
2023-01-29T06:57:29.476Z,3.38
2023-01-29T06:59:56.076Z,3.30
2023-01-29T07:02:22.612Z,3.47
2023-01-29T07:04:49.253Z,2.90
2023-01-29T07:07:15.791Z,3.40
2023-01-29T07:09:42.506Z,2.70
2023-01-29T07:12:09.963Z,2.90
2023-01-29T07:14:36.588Z,2.78
2023-01-29T07:17:03.083Z,2.83
2023-01-29T07:19:29.855Z,3.00
2023-01-29T07:21:56.849Z,3.00
2023-01-29T07:24:23.333Z,3.00
2023-01-29T07:26:49.859Z,3.00
2023-01-29T07:29:16.340Z,3.35
2023-01-29T07:31:42.977Z,3.00
2023-01-29T07:34:09.589Z,3.25
2023-01-29T07:36:37.096Z,3.10
2023-01-29T07:39:03.715Z,2.80
2023-01-29T07:41:30.297Z,3.20
2023-01-29T07:43:56.780Z,2.72
2023-01-29T07:46:23.255Z,3.35
2023-01-29T07:48:49.746Z,3.40
2023-01-29T07:51:18.140Z,3.67
2023-01-29T07:53:45.045Z,3.72
2023-01-29T07:56:11.583Z,3.63
2023-01-29T07:58:38.047Z,4.00
2023-01-29T08:01:07.883Z,4.55
2023-01-29T08:03:34.632Z,3.78
2023-01-29T08:06:01.151Z,4.00
2023-01-29T08:08:27.614Z,3.50
2023-01-29T08:10:54.096Z,4.10
2023-01-29T08:13:20.586Z,3.88
2023-01-29T08:15:47.152Z,7.80
2023-01-29T08:18:14.108Z,4.43
2023-01-29T08:20:40.573Z,4.60
2023-01-29T08:23:11.968Z,4.00
2023-01-29T08:25:38.911Z,5.25
2023-01-29T08:28:05.491Z,4.38
2023-01-29T08:30:32.833Z,4.55
2023-01-29T08:32:59.447Z,4.57
2023-01-29T08:35:26.153Z,5.30
2023-01-29T08:37:58.247Z,5.43
2023-01-29T08:40:25.390Z,5.30
2023-01-29T08:42:51.882Z,4.72
2023-01-29T08:45:18.412Z,4.90
2023-01-29T08:47:49.080Z,4.63
2023-01-29T08:50:16.852Z,4.47
2023-01-29T08:52:44.018Z,4.70
2023-01-29T08:55:11.516Z,5.05
2023-01-29T08:57:38.693Z,5.10
2023-01-29T09:00:06.351Z,4.30
2023-01-29T09:02:33.321Z,5.43
2023-01-29T09:04:59.833Z,6.18
2023-01-29T09:07:26.339Z,5.68
2023-01-29T09:09:52.839Z,6.13
2023-01-29T09:12:19.310Z,5.18
2023-01-29T09:14:45.855Z,5.72
2023-01-29T09:17:12.347Z,4.68
2023-01-29T09:19:38.806Z,5.75
2023-01-29T09:22:05.273Z,5.45
2023-01-29T09:24:32.717Z,4.93
2023-01-29T09:26:59.219Z,4.75
2023-01-29T09:29:25.693Z,4.75
2023-01-29T09:31:52.380Z,6.28
2023-01-29T09:34:18.933Z,5.40
2023-01-29T09:36:45.469Z,4.85
2023-01-29T09:39:12.004Z,5.97
2023-01-29T09:42:01.578Z,5.32
2023-01-29T09:44:34.135Z,6.10
2023-01-29T09:47:00.585Z,4.90
2023-01-29T09:49:28.924Z,4.93
2023-01-29T09:52:07.418Z,5.53
2023-01-29T09:55:02.917Z,5.38
2023-01-29T09:57:39.309Z,6.22
2023-01-29T10:00:06.465Z,5.97
2023-01-29T10:03:11.126Z,5.60
2023-01-29T10:06:15.051Z,5.82
2023-01-29T10:08:56.540Z,5.93
2023-01-29T10:11:50.590Z,5.90
2023-01-29T10:14:37.912Z,6.10
2023-01-29T10:17:23.303Z,5.60
2023-01-29T10:20:01.979Z,4.53
2023-01-29T10:22:46.578Z,4.70
2023-01-29T10:25:15.705Z,4.15
2023-01-29T10:27:47.444Z,4.78
2023-01-29T10:30:20.986Z,5.10
2023-01-29T10:32:47.510Z,10.27
2023-01-29T10:35:24.982Z,6.68
2023-01-29T10:37:54.883Z,4.80
2023-01-29T10:40:29.608Z,4.47
2023-01-29T10:43:11.266Z,5.00
2023-01-29T10:45:46.903Z,4.78
2023-01-29T10:48:41.442Z,5.43
2023-01-29T10:51:46.262Z,5.00
2023-01-29T10:54:22.791Z,4.90
2023-01-29T10:57:02.214Z,5.15
2023-01-29T10:59:43.544Z,5.07
2023-01-29T11:02:18.146Z,6.00
2023-01-29T11:04:44.929Z,6.15
2023-01-29T11:07:12.550Z,5.72
2023-01-29T11:09:57.720Z,5.95
2023-01-29T11:12:30.365Z,5.22
2023-01-29T11:15:04.086Z,5.07
2023-01-29T11:17:30.663Z,4.93
2023-01-29T11:19:57.183Z,5.57
2023-01-29T11:22:25.644Z,5.10
2023-01-29T11:25:07.217Z,5.05
2023-01-29T11:27:35.463Z,4.78
2023-01-29T11:30:01.977Z,4.90
2023-01-29T11:32:29.654Z,5.38
2023-01-29T11:35:14.730Z,5.38
2023-01-29T11:37:45.157Z,5.57
2023-01-29T11:40:23.809Z,4.78
2023-01-29T11:42:50.510Z,5.65
2023-01-29T11:45:20.079Z,6.47
2023-01-29T11:47:50.461Z,5.57
2023-01-29T11:50:21.774Z,5.55
2023-01-29T11:52:48.710Z,5.28
2023-01-29T11:55:21.363Z,5.45
2023-01-29T11:57:58.162Z,5.30
2023-01-29T12:00:31.753Z,5.70
2023-01-29T12:03:16.420Z,5.28
2023-01-29T12:05:54.676Z,5.20
2023-01-29T12:08:22.900Z,5.50
2023-01-29T12:10:49.539Z,5.65
2023-01-29T12:13:25.571Z,5.95
2023-01-29T12:16:05.099Z,7.25
2023-01-29T12:18:41.721Z,5.65
2023-01-29T12:21:32.984Z,6.20
2023-01-29T12:24:20.558Z,5.20
2023-01-29T12:26:50.938Z,6.72
2023-01-29T12:29:47.008Z,6.38
2023-01-29T12:32:25.285Z,6.82
2023-01-29T12:35:22.295Z,5.47
2023-01-29T12:37:56.530Z,5.43
2023-01-29T12:40:25.413Z,5.40
2023-01-29T12:42:55.303Z,5.60
2023-01-29T12:45:23.420Z,5.93
2023-01-29T12:47:58.847Z,5.57
2023-01-29T12:50:35.530Z,5.60
2023-01-29T12:53:03.354Z,6.90
2023-01-29T12:55:34.372Z,7.30
2023-01-29T12:58:02.501Z,5.20
2023-01-29T13:00:32.283Z,4.78
2023-01-29T13:03:06.217Z,6.70
2023-01-29T13:05:46.551Z,5.97
2023-01-29T13:08:51.501Z,6.50
2023-01-29T13:11:27.041Z,5.97
2023-01-29T13:14:05.885Z,4.97
2023-01-29T13:16:40.866Z,5.28
2023-01-29T13:19:33.432Z,4.68
2023-01-29T13:22:02.252Z,4.40
2023-01-29T13:24:34.277Z,4.90
2023-01-29T13:27:00.772Z,4.57
2023-01-29T13:29:29.200Z,4.68
2023-01-29T13:31:56.658Z,5.78
2023-01-29T13:34:33.961Z,4.97
2023-01-29T13:37:09.193Z,5.47
2023-01-29T13:39:44.909Z,4.72
2023-01-29T13:42:25.260Z,6.55
2023-01-29T13:44:54.350Z,4.65
2023-01-29T13:47:28.720Z,11.18
2023-01-29T13:50:02.510Z,7.32
2023-01-29T13:52:40.789Z,5.35
2023-01-29T13:55:08.351Z,5.45
2023-01-29T13:57:44.070Z,5.28
2023-01-29T14:00:22.705Z,4.78
2023-01-29T14:02:55.013Z,4.60
2023-01-29T14:05:30.675Z,4.57
2023-01-29T14:07:59.265Z,4.30
2023-01-29T14:10:26.952Z,7.22
2023-01-29T14:13:11.692Z,5.30
2023-01-29T14:15:44.214Z,5.97
2023-01-29T14:18:19.383Z,4.63
2023-01-29T14:21:07.530Z,4.65
2023-01-29T14:23:41.612Z,5.70
2023-01-29T14:26:27.451Z,5.97
2023-01-29T14:28:58.844Z,6.18
2023-01-29T14:31:42.067Z,5.30
2023-01-29T14:34:18.200Z,4.72
2023-01-29T14:36:45.036Z,5.93
2023-01-29T14:39:28.606Z,5.00
2023-01-29T14:41:55.167Z,5.82
2023-01-29T14:44:47.241Z,5.00
2023-01-29T14:47:40.477Z,5.45
2023-01-29T14:52:53.917Z,5.00
2023-01-29T14:55:43.057Z,5.45
2023-01-29T14:58:22.792Z,6.07
2023-01-29T15:00:51.224Z,6.07
2023-01-29T15:03:20.763Z,5.75
2023-01-29T15:05:47.239Z,7.28
2023-01-29T15:08:37.681Z,6.28
2023-01-29T15:11:25.981Z,5.75
2023-01-29T15:13:55.856Z,6.40
2023-01-29T15:16:27.329Z,7.30
2023-01-29T15:18:56.784Z,7.10
2023-01-29T15:21:23.261Z,6.38
2023-01-29T15:23:53.597Z,5.97
2023-01-29T15:26:25.345Z,7.28
2023-01-29T15:29:04.934Z,5.15
2023-01-29T15:31:32.097Z,5.70
2023-01-29T15:34:00.182Z,5.93
2023-01-29T15:36:28.459Z,6.35
2023-01-29T15:39:13.055Z,5.70
2023-01-29T15:41:39.604Z,5.65
2023-01-29T15:44:20.082Z,7.03
2023-01-29T15:46:56.949Z,11.52
2023-01-29T15:49:34.557Z,6.78
2023-01-29T15:52:04.357Z,7.32
2023-01-29T15:54:31.392Z,7.50
2023-01-29T15:56:58.062Z,6.10
2023-01-29T15:59:44.180Z,5.95
2023-01-29T16:02:37.627Z,6.47
2023-01-29T16:05:05.809Z,6.80
2023-01-29T16:07:32.389Z,7.32
2023-01-29T16:09:58.953Z,6.55
2023-01-29T16:12:25.431Z,6.43
2023-01-29T16:14:51.917Z,6.85
2023-01-29T16:17:29.309Z,7.82
2023-01-29T16:19:59.661Z,7.90
2023-01-29T16:22:31.006Z,7.78
2023-01-29T16:25:01.117Z,7.65
2023-01-29T16:27:27.757Z,8.48
2023-01-29T16:29:54.274Z,7.72
2023-01-29T16:32:20.917Z,9.77
2023-01-29T16:34:52.452Z,9.95
2023-01-29T16:37:23.497Z,12.18
2023-01-29T16:39:50.841Z,10.00
2023-01-29T16:42:21.358Z,10.75
2023-01-29T16:44:58.402Z,9.15
2023-01-29T16:47:35.908Z,7.70
2023-01-29T16:50:17.295Z,10.02
2023-01-29T16:53:01.980Z,10.57
2023-01-29T16:55:33.297Z,8.73
2023-01-29T16:58:01.457Z,12.82
2023-01-29T17:00:28.937Z,7.82
2023-01-29T17:02:59.539Z,9.18
2023-01-29T17:05:30.435Z,9.25
2023-01-29T17:07:58.379Z,10.25
2023-01-29T17:10:25.554Z,10.77
2023-01-29T17:12:55.126Z,8.98
2023-01-29T17:15:36.802Z,8.18
2023-01-29T17:18:03.444Z,8.73
2023-01-29T17:20:30.066Z,8.75
2023-01-29T17:22:56.619Z,10.73
2023-01-29T17:25:23.707Z,10.05
2023-01-29T17:27:52.120Z,10.93
2023-01-29T17:30:19.968Z,9.55
2023-01-29T17:32:47.306Z,8.40
2023-01-29T17:35:15.414Z,8.35
2023-01-29T17:37:42.104Z,7.60
2023-01-29T17:40:16.329Z,7.88
2023-01-29T17:42:42.891Z,10.20
2023-01-29T17:45:10.753Z,10.23
2023-01-29T17:47:37.263Z,10.45
2023-01-29T17:50:12.395Z,8.98
2023-01-29T17:52:38.881Z,10.95
2023-01-29T17:55:05.956Z,11.00
2023-01-29T17:57:32.840Z,9.65
2023-01-29T17:59:59.359Z,7.93
2023-01-29T18:02:29.489Z,7.82
2023-01-29T18:04:56.865Z,8.35
2023-01-29T18:07:23.355Z,7.70
2023-01-29T18:09:49.840Z,7.70
2023-01-29T18:12:16.338Z,7.25
2023-01-29T18:14:42.857Z,10.15
2023-01-29T18:17:09.334Z,9.73
2023-01-29T18:19:35.845Z,10.82
2023-01-29T18:22:02.385Z,11.18
2023-01-29T18:24:29.972Z,13.82
2023-01-29T18:26:56.506Z,16.27
2023-01-29T18:29:29.389Z,15.65
2023-01-29T18:31:56.223Z,7.63
2023-01-29T18:34:22.757Z,7.15
2023-01-29T18:36:50.141Z,6.40
2023-01-29T18:39:16.841Z,7.20
2023-01-29T18:41:43.353Z,6.63
2023-01-29T18:44:10.586Z,6.40
2023-01-29T18:46:37.255Z,6.53
2023-01-29T18:49:05.086Z,7.05
2023-01-29T18:51:31.806Z,7.05
2023-01-29T18:53:58.343Z,7.20
2023-01-29T18:56:24.932Z,7.15
2023-01-29T18:58:55.345Z,7.47
2023-01-29T19:01:22.562Z,7.35
2023-01-29T19:03:49.129Z,7.70
2023-01-29T19:06:15.682Z,8.05
2023-01-29T19:08:43.725Z,8.07
2023-01-29T19:11:12.398Z,7.85
2023-01-29T19:13:38.968Z,7.35
2023-01-29T19:16:09.251Z,7.60
2023-01-29T19:18:35.854Z,8.25
2023-01-29T19:21:06.581Z,8.18
2023-01-29T19:23:33.099Z,8.82
2023-01-29T19:25:59.608Z,9.73
2023-01-29T19:28:26.350Z,9.88
2023-01-29T19:30:52.997Z,12.88
2023-01-29T19:33:19.845Z,11.75
2023-01-29T19:35:46.371Z,13.50
2023-01-29T19:38:18.552Z,13.63
2023-01-29T19:40:45.226Z,13.82
2023-01-29T19:43:13.434Z,15.68
2023-01-29T19:45:49.736Z,16.58
2023-01-29T19:48:22.761Z,13.77
2023-01-29T19:50:59.951Z,16.10
2023-01-29T19:53:27.891Z,14.50
2023-01-29T19:56:03.099Z,18.15
2023-01-29T19:58:29.762Z,16.00
2023-01-29T20:01:00.705Z,15.48
2023-01-29T20:03:27.725Z,13.50
2023-01-29T20:05:54.480Z,13.50
2023-01-29T20:08:21.053Z,12.68
2023-01-29T20:10:48.453Z,12.88
2023-01-29T20:13:15.103Z,12.57
2023-01-29T20:15:48.761Z,12.27
2023-01-29T20:18:15.289Z,10.55
2023-01-29T20:20:53.088Z,10.88
2023-01-29T20:23:31.689Z,10.60
2023-01-29T20:26:03.690Z,10.88
2023-01-29T20:28:30.189Z,10.93
2023-01-29T20:30:58.172Z,10.85
2023-01-29T20:33:25.339Z,10.88
2023-01-29T20:35:59.540Z,10.55
2023-01-29T20:38:30.372Z,9.30
2023-01-29T20:41:12.399Z,9.40
2023-01-29T20:43:39.119Z,9.80
2023-01-29T20:46:05.778Z,11.25
2023-01-29T20:48:33.089Z,10.32
2023-01-29T20:51:06.603Z,10.38
2023-01-29T20:53:33.138Z,10.73
2023-01-29T20:55:59.782Z,10.98
2023-01-29T20:58:26.556Z,10.43
2023-01-29T21:00:53.067Z,11.32
2023-01-29T21:03:19.630Z,12.30
2023-01-29T21:05:46.403Z,12.38
2023-01-29T21:08:12.980Z,10.93
2023-01-29T21:10:39.451Z,11.55
2023-01-29T21:13:06.034Z,12.18
2023-01-29T21:15:32.506Z,10.98
2023-01-29T21:18:02.524Z,11.40
2023-01-29T21:20:29.053Z,13.27
2023-01-29T21:22:55.583Z,12.25
2023-01-29T21:25:23.009Z,13.63
2023-01-29T21:27:49.923Z,14.77
2023-01-29T21:30:18.146Z,14.40
2023-01-29T21:32:45.305Z,15.65
2023-01-29T21:35:11.879Z,14.73
2023-01-29T21:37:38.425Z,15.38
2023-01-29T21:40:05.838Z,14.75
2023-01-29T21:42:50.935Z,16.13
2023-01-29T21:45:17.539Z,14.52
2023-01-29T21:47:44.023Z,14.55
2023-01-29T21:50:11.139Z,15.50
2023-01-29T21:52:38.221Z,17.38
2023-01-29T21:55:05.163Z,16.83
2023-01-29T21:57:31.784Z,17.25
2023-01-29T21:59:59.357Z,16.60
2023-01-29T22:02:32.001Z,15.20
2023-01-29T22:05:16.553Z,14.68
2023-01-29T22:07:45.042Z,17.08
2023-01-29T22:10:12.366Z,16.15
2023-01-29T22:12:39.385Z,15.90
2023-01-29T22:15:07.961Z,14.60
2023-01-29T22:17:35.271Z,15.32
2023-01-29T22:20:01.914Z,15.65
2023-01-29T22:22:28.462Z,15.90
2023-01-29T22:24:56.426Z,17.60
2023-01-29T22:27:22.908Z,16.92
2023-01-29T22:29:49.499Z,18.52
2023-01-29T22:32:16.396Z,16.83
2023-01-29T22:34:42.978Z,17.77
2023-01-29T22:37:09.478Z,16.85
2023-01-29T22:39:36.027Z,20.55
2023-01-29T22:42:02.530Z,17.52
2023-01-29T22:44:29.063Z,18.20
2023-01-29T22:46:55.518Z,17.08
2023-01-29T22:49:23.076Z,18.13
2023-01-29T22:52:10.142Z,18.60
2023-01-29T22:54:38.216Z,15.82
2023-01-29T22:57:05.014Z,16.17
2023-01-29T22:59:32.084Z,15.77
2023-01-29T23:01:58.654Z,16.40
2023-01-29T23:04:25.247Z,15.75
2023-01-29T23:06:51.824Z,15.25
2023-01-29T23:09:18.318Z,15.10
2023-01-29T23:11:44.818Z,16.20
2023-01-29T23:14:11.373Z,15.25
2023-01-29T23:16:37.829Z,17.27
2023-01-29T23:19:04.327Z,16.25
2023-01-29T23:21:31.986Z,15.20
2023-01-29T23:23:59.540Z,16.63
2023-01-29T23:26:45.229Z,15.93
2023-01-29T23:29:11.813Z,16.60
2023-01-29T23:31:38.698Z,15.38
2023-01-29T23:34:05.319Z,15.18
2023-01-29T23:36:31.798Z,15.98
2023-01-29T23:38:58.331Z,15.90
2023-01-29T23:41:24.857Z,15.35
2023-01-29T23:43:52.716Z,16.75
2023-01-29T23:46:19.277Z,15.65
2023-01-29T23:48:46.221Z,16.15
2023-01-29T23:51:12.711Z,15.32
2023-01-29T23:53:39.227Z,15.85
2023-01-29T23:56:06.026Z,15.88
2023-01-29T23:58:32.871Z,15.52
